Hlavní strana
METAR-TAF:

METAR-TAF

Letiště :

Owensboro-Daviess County Airport

Owensboro, Kentucky, Spojené státy americké

zeměpisná šířka: 37-44N, zeměpisná délka: 087-10W, výška: 124 m

Aktuální stav počasí

Zpráva byla vytvořena před 42 minutami, v 00:56 UTC
Bezvětří
Teplota 8°C
Vlhkost vzduchu 39%
Tlak 1021 hPa
Viditelnost: 16.1 km
Jasno

METAR: KOWB 220056Z 00000KT 10SM CLR 08/M05 A3015 RMK AO2 SLP213 T00781050

Čas: 20:38 (01:38 UTC)

Předpověď počasí

Zpráva byla vytvořena před 2 hodinami a 18 minutami, v 23:20 UTC
Předpověď platná od 22 v 00 UTC do 22 v 24 UTC
Západoseverozápadní vítr 6 kt
Viditelnost: 10 km
Oblačno až skoro zataženo ve výšce 8000 ft
přeháňky v blízkosti
Od 22 v 1300 UTC
Západoseverozápadní vítr 6 kt
Viditelnost: 10 km
Jasno
Od 22 v 1600 UTC
Západoseverozápadní vítr 9 kt
Viditelnost: 10 km
Skoro jasno ve výšce 4000 ft

TAF: KOWB 212320Z 2200/2224 29006KT P6SM VCSH BKN080 FM221300 30006KT P6SM SKC FM221600 30009KT P6SM FEW040

Stav a předpovědi počasí z více než 4 000 letišť (zprávy METAR a TAF).

Červené a žluté tečky na mapě představují dostupné meteorologické stanice.

Když kurzor umístíte na tečku, zobrazí se název stanice.

Pak kliknutím zobrazíte stav a předpověď počasí.

Chcete-li změnit mapu, kliknutím na zelené tlačítko se znaménkem +mapu přiblížíte, kliknutím na zelené tlačítko se znaménkem – mapu oddálíte a kliknutím na zelené šipky přejdete na sousední mapy.


METAR-TAF: